Aviation Digital Data Service (ADDS)

Output produced by METARs form (1601 UTC 20 March 2019)
found at http://www.aviationweather.gov/metar/data/
 
Forecast for: MROC (JUAN SANTAMARIA , CR)
Text: MROC 201100Z 2012/2112 11012KT 9999 FEW040 TX30/2018Z TN20/2110Z
Forecast period: 1200 UTC 20 March 2019 to 1200 UTC 21 March 2019
Forecast type: FROM: standard forecast or significant change
Winds: from the ESE (110 degrees) at 14 MPH (12 knots; 6.2 m/s)
Visibility: 6 or more miles 10+ km)
Ceiling: at least 12,000 feet AGL
Clouds: few clouds at 4000 feet AGL
Weather: no significant weather forecast for this period